Time,TemperatureF,DewpointF,PressureIn,WindDirection,WindDirectionDegrees,WindSpeedMPH,WindSpeedGustMPH,Humidity,HourlyPrecipIn,Conditions,Clouds,dailyrainin,SolarRadiationWatts/m^2,SoftwareType,DateUTC
2013-01-13 00:01:00,45.0,38.0,-100.00,NNE,28,3.0,6.0,77,0.00,,,0.00,0.000000,,2013-01-13 05:01:00,
2013-01-13 00:33:00,45.0,38.0,-100.00,NNE,28,3.0,6.0,77,0.00,,,0.00,0.000000,,2013-01-13 05:33:00,
2013-01-13 00:42:00,45.0,38.0,-100.00,NNE,28,3.0,6.0,77,0.00,,,0.00,0.000000,,2013-01-13 05:42:00,
2013-01-13 00:53:00,45.0,38.0,-100.00,NNE,28,3.0,6.0,77,0.00,,,0.00,0.000000,,2013-01-13 05:53:00,
2013-01-13 01:01:00,41.0,34.0,-100.00,North,0,5.0,10.0,77,0.00,,,0.00,0.000000,,2013-01-13 06:01:00,
2013-01-13 01:33:00,41.0,34.0,-100.00,North,0,5.0,10.0,77,0.00,,,0.00,0.000000,,2013-01-13 06:33:00,
2013-01-13 01:42:00,41.0,34.0,-100.00,North,0,5.0,10.0,77,0.00,,,0.00,0.000000,,2013-01-13 06:42:00,
2013-01-13 01:52:00,41.0,34.0,-100.00,North,0,5.0,10.0,77,0.00,,,0.00,0.000000,,2013-01-13 06:52:00,
2013-01-13 02:01:00,39.0,33.0,-100.00,NNE,25,6.0,14.0,78,0.00,,,0.00,0.000000,,2013-01-13 07:01:00,
2013-01-13 02:33:00,39.0,33.0,-100.00,NNE,25,6.0,14.0,78,0.00,,,0.00,0.000000,,2013-01-13 07:33:00,
2013-01-13 02:42:00,39.0,33.0,-100.00,NNE,25,6.0,14.0,78,0.00,,,0.00,0.000000,,2013-01-13 07:42:00,
2013-01-13 02:53:00,39.0,33.0,-100.00,NNE,25,6.0,14.0,78,0.00,,,0.00,0.000000,,2013-01-13 07:53:00,
2013-01-13 03:01:00,37.0,31.0,-100.00,NNE,21,4.0,10.0,78,0.00,,,0.00,0.000000,,2013-01-13 08:01:00,
2013-01-13 03:32:00,37.0,31.0,-100.00,NNE,21,4.0,10.0,78,0.00,,,0.00,0.000000,,2013-01-13 08:32:00,
2013-01-13 03:42:00,37.0,31.0,-100.00,NNE,21,4.0,10.0,78,0.00,,,0.00,0.000000,,2013-01-13 08:42:00,
2013-01-13 03:53:00,37.0,31.0,-100.00,NNE,21,4.0,10.0,78,0.00,,,0.00,0.000000,,2013-01-13 08:53:00,
2013-01-13 04:01:00,37.0,31.0,-100.00,North,11,4.0,10.0,79,0.00,,,0.00,0.000000,,2013-01-13 09:01:00,
2013-01-13 04:22:00,37.0,31.0,-100.00,North,11,4.0,10.0,79,0.00,,,0.00,0.000000,,2013-01-13 09:22:00,
2013-01-13 04:32:00,37.0,31.0,-100.00,North,11,4.0,10.0,79,0.00,,,0.00,0.000000,,2013-01-13 09:32:00,
2013-01-13 04:43:00,37.0,31.0,-100.00,North,11,4.0,10.0,79,0.00,,,0.00,0.000000,,2013-01-13 09:43:00,
2013-01-13 04:53:00,37.0,31.0,-100.00,North,11,4.0,10.0,79,0.00,,,0.00,0.000000,,2013-01-13 09:53:00,
2013-01-13 05:01:00,36.0,30.0,-100.00,NNE,12,5.0,13.0,80,0.00,,,0.00,0.000000,,2013-01-13 10:01:00,
2013-01-13 05:32:00,36.0,30.0,-100.00,NNE,12,5.0,13.0,80,0.00,,,0.00,0.000000,,2013-01-13 10:32:00,
2013-01-13 05:42:00,36.0,30.0,-100.00,NNE,12,5.0,13.0,80,0.00,,,0.00,0.000000,,2013-01-13 10:42:00,
2013-01-13 05:53:00,36.0,30.0,-100.00,NNE,12,5.0,13.0,80,0.00,,,0.00,0.000000,,2013-01-13 10:53:00,
2013-01-13 06:01:00,36.0,30.0,-100.00,NNW,339,8.0,18.0,80,0.00,,,0.00,0.000000,,2013-01-13 11:01:00,
2013-01-13 06:33:00,36.0,30.0,-100.00,NNW,339,8.0,18.0,80,0.00,,,0.00,0.000000,,2013-01-13 11:33:00,
2013-01-13 06:43:00,36.0,30.0,-100.00,NNW,339,8.0,18.0,80,0.00,,,0.00,0.000000,,2013-01-13 11:43:00,
2013-01-13 06:53:00,36.0,30.0,-100.00,NNW,339,8.0,18.0,80,0.00,,,0.00,0.000000,,2013-01-13 11:53:00,
2013-01-13 07:01:00,35.0,29.0,-100.00,North,0,6.0,14.0,80,0.00,,,0.00,0.000000,,2013-01-13 12:01:00,
2013-01-13 07:33:00,35.0,29.0,-100.00,North,0,6.0,14.0,80,0.00,,,0.00,0.000000,,2013-01-13 12:33:00,
2013-01-13 07:42:00,35.0,29.0,-100.00,North,0,6.0,14.0,80,0.00,,,0.00,0.000000,,2013-01-13 12:42:00,
2013-01-13 07:53:00,35.0,29.0,-100.00,North,0,6.0,14.0,80,0.00,,,0.00,0.000000,,2013-01-13 12:53:00,
2013-01-13 08:01:00,36.0,30.0,-100.00,NNE,22,3.0,11.0,80,0.00,,,0.00,0.000000,,2013-01-13 13:01:00,
2013-01-13 08:22:00,36.0,30.0,-100.00,NNE,22,3.0,11.0,80,0.00,,,0.00,0.000000,,2013-01-13 13:22:00,
2013-01-13 08:33:00,36.0,30.0,-100.00,NNE,22,3.0,11.0,80,0.00,,,0.00,0.000000,,2013-01-13 13:33:00,
2013-01-13 08:43:00,36.0,30.0,-100.00,NNE,22,3.0,11.0,80,0.00,,,0.00,0.000000,,2013-01-13 13:43:00,
2013-01-13 08:53:00,36.0,30.0,-100.00,NNE,22,3.0,11.0,80,0.00,,,0.00,0.000000,,2013-01-13 13:53:00,
2013-01-13 09:01:00,36.0,31.0,-100.00,NNE,32,2.0,7.0,81,0.00,,,0.00,7.000000,,2013-01-13 14:01:00,
2013-01-13 09:33:00,36.0,31.0,-100.00,NNE,32,2.0,7.0,81,0.00,,,0.00,7.000000,,2013-01-13 14:33:00,
2013-01-13 09:43:00,36.0,31.0,-100.00,NNE,32,2.0,7.0,81,0.00,,,0.00,7.000000,,2013-01-13 14:43:00,
2013-01-13 09:53:00,36.0,31.0,-100.00,NNE,32,2.0,7.0,81,0.00,,,0.00,7.000000,,2013-01-13 14:53:00,
2013-01-13 10:01:00,37.0,32.0,-100.00,NE,42,1.0,5.0,81,0.00,,,0.00,20.000000,,2013-01-13 15:01:00,
2013-01-13 10:23:00,37.0,32.0,-100.00,NE,42,1.0,5.0,81,0.00,,,0.00,20.000000,,2013-01-13 15:23:00,
2013-01-13 10:33:00,37.0,32.0,-100.00,NE,42,1.0,5.0,81,0.00,,,0.00,20.000000,,2013-01-13 15:33:00,
2013-01-13 10:43:00,37.0,32.0,-100.00,NE,42,1.0,5.0,81,0.00,,,0.00,20.000000,,2013-01-13 15:43:00,
2013-01-13 10:53:00,37.0,32.0,-100.00,NE,42,1.0,5.0,81,0.00,,,0.00,20.000000,,2013-01-13 15:53:00,
2013-01-13 11:01:00,37.0,32.0,-100.00,WNW,289,4.0,7.0,81,0.00,,,0.00,35.000000,,2013-01-13 16:01:00,
2013-01-13 11:33:00,37.0,32.0,-100.00,WNW,289,4.0,7.0,81,0.00,,,0.00,35.000000,,2013-01-13 16:33:00,
2013-01-13 11:43:00,37.0,32.0,-100.00,WNW,289,4.0,7.0,81,0.00,,,0.00,35.000000,,2013-01-13 16:43:00,
2013-01-13 11:53:00,37.0,32.0,-100.00,WNW,289,4.0,7.0,81,0.00,,,0.00,35.000000,,2013-01-13 16:53:00,
2013-01-13 12:01:00,37.0,32.0,-100.00,NW,323,4.0,10.0,81,0.00,,,0.00,55.000000,,2013-01-13 17:01:00,
2013-01-13 12:33:00,37.0,32.0,-100.00,NW,323,4.0,10.0,81,0.00,,,0.00,55.000000,,2013-01-13 17:33:00,
2013-01-13 12:43:00,37.0,32.0,-100.00,NW,323,4.0,10.0,81,0.00,,,0.00,55.000000,,2013-01-13 17:43:00,
2013-01-13 12:53:00,37.0,32.0,-100.00,NW,323,4.0,10.0,81,0.00,,,0.00,55.000000,,2013-01-13 17:53:00,
2013-01-13 13:01:00,36.0,31.0,-100.00,West,277,3.0,10.0,81,0.00,,,0.00,57.000000,,2013-01-13 18:01:00,
2013-01-13 13:33:00,36.0,31.0,-100.00,West,277,3.0,10.0,81,0.00,,,0.00,57.000000,,2013-01-13 18:33:00,
2013-01-13 13:43:00,36.0,31.0,-100.00,West,277,3.0,10.0,81,0.00,,,0.00,57.000000,,2013-01-13 18:43:00,
2013-01-13 13:53:00,36.0,31.0,-100.00,West,277,3.0,10.0,81,0.00,,,0.00,57.000000,,2013-01-13 18:53:00,
2013-01-13 14:01:00,36.0,31.0,-100.00,NW,319,5.0,12.0,82,0.00,,,0.00,41.000000,,2013-01-13 19:01:00,
2013-01-13 14:33:00,36.0,31.0,-100.00,NW,319,5.0,12.0,82,0.00,,,0.00,41.000000,,2013-01-13 19:33:00,
2013-01-13 14:43:00,36.0,31.0,-100.00,NW,319,5.0,12.0,82,0.00,,,0.00,41.000000,,2013-01-13 19:43:00,
2013-01-13 14:53:00,36.0,31.0,-100.00,NW,319,5.0,12.0,82,0.00,,,0.00,41.000000,,2013-01-13 19:53:00,
2013-01-13 15:01:00,35.0,30.0,-100.00,NNW,334,5.0,9.0,82,0.00,,,0.00,41.000000,,2013-01-13 20:01:00,
2013-01-13 15:33:00,35.0,30.0,-100.00,NNW,334,5.0,9.0,82,0.00,,,0.00,41.000000,,2013-01-13 20:33:00,
2013-01-13 15:43:00,35.0,30.0,-100.00,NNW,334,5.0,9.0,82,0.00,,,0.00,41.000000,,2013-01-13 20:43:00,
2013-01-13 15:53:00,35.0,30.0,-100.00,NNW,334,5.0,9.0,82,0.00,,,0.00,41.000000,,2013-01-13 20:53:00,
2013-01-13 16:01:00,35.0,30.0,-100.00,NW,320,7.0,13.0,82,0.00,,,0.00,23.000000,,2013-01-13 21:01:00,
2013-01-13 16:33:00,35.0,30.0,-100.00,NW,320,7.0,13.0,82,0.00,,,0.00,23.000000,,2013-01-13 21:33:00,
2013-01-13 16:43:00,35.0,30.0,-100.00,NW,320,7.0,13.0,82,0.00,,,0.00,23.000000,,2013-01-13 21:43:00,
2013-01-13 16:53:00,35.0,30.0,-100.00,NW,320,7.0,13.0,82,0.00,,,0.00,23.000000,,2013-01-13 21:53:00,
2013-01-13 17:01:00,34.0,29.0,-100.00,NNW,327,3.0,12.0,83,0.00,,,0.00,9.000000,,2013-01-13 22:01:00,
2013-01-13 17:23:00,34.0,29.0,-100.00,NNW,327,3.0,12.0,83,0.00,,,0.00,9.000000,,2013-01-13 22:23:00,
2013-01-13 17:33:00,34.0,29.0,-100.00,NNW,327,3.0,12.0,83,0.00,,,0.00,9.000000,,2013-01-13 22:33:00,
2013-01-13 17:43:00,34.0,29.0,-100.00,NNW,327,3.0,12.0,83,0.00,,,0.00,9.000000,,2013-01-13 22:43:00,
2013-01-13 17:53:00,34.0,29.0,-100.00,NNW,327,3.0,12.0,83,0.00,,,0.00,9.000000,,2013-01-13 22:53:00,
2013-01-13 18:01:00,34.0,29.0,-100.00,West,259,2.0,5.0,83,0.00,,,0.00,0.000000,,2013-01-13 23:01:00,
2013-01-13 18:33:00,34.0,29.0,-100.00,West,259,2.0,5.0,83,0.00,,,0.00,0.000000,,2013-01-13 23:33:00,
2013-01-13 18:43:00,34.0,29.0,-100.00,West,259,2.0,5.0,83,0.00,,,0.00,0.000000,,2013-01-13 23:43:00,
2013-01-13 18:53:00,34.0,29.0,-100.00,West,259,2.0,5.0,83,0.00,,,0.00,0.000000,,2013-01-13 23:53:00,
2013-01-13 19:01:00,33.0,28.0,-100.00,West,276,2.0,5.0,83,0.00,,,-99.99,0.000000,,2013-01-14 00:01:00,
2013-01-13 19:33:00,33.0,28.0,-100.00,West,276,2.0,5.0,83,0.00,,,-99.99,0.000000,,2013-01-14 00:33:00,
2013-01-13 19:43:00,33.0,28.0,-100.00,West,276,2.0,5.0,83,0.00,,,-99.99,0.000000,,2013-01-14 00:43:00,
2013-01-13 19:53:00,33.0,28.0,-100.00,West,276,2.0,5.0,83,0.00,,,-99.99,0.000000,,2013-01-14 00:53:00,
2013-01-13 20:01:00,32.0,27.0,-100.00,West,275,3.0,8.0,83,0.00,,,0.00,0.000000,,2013-01-14 01:01:00,
2013-01-13 20:33:00,32.0,27.0,-100.00,West,275,3.0,8.0,83,0.00,,,0.00,0.000000,,2013-01-14 01:33:00,
2013-01-13 20:42:00,32.0,27.0,-100.00,West,275,3.0,8.0,83,0.00,,,0.00,0.000000,,2013-01-14 01:42:00,
2013-01-13 20:53:00,32.0,27.0,-100.00,West,275,3.0,8.0,83,0.00,,,0.00,0.000000,,2013-01-14 01:53:00,
2013-01-13 21:01:00,32.0,28.0,-100.00,WNW,284,6.0,15.0,84,0.00,,,0.00,0.000000,,2013-01-14 02:01:00,
2013-01-13 21:33:00,32.0,28.0,-100.00,WNW,284,6.0,15.0,84,0.00,,,0.00,0.000000,,2013-01-14 02:33:00,
2013-01-13 21:43:00,32.0,28.0,-100.00,WNW,284,6.0,15.0,84,0.00,,,0.00,0.000000,,2013-01-14 02:43:00,
2013-01-13 21:53:00,32.0,28.0,-100.00,WNW,284,6.0,15.0,84,0.00,,,0.00,0.000000,,2013-01-14 02:53:00,
2013-01-13 22:01:00,30.0,26.0,-100.00,WNW,288,6.0,16.0,84,0.00,,,0.00,0.000000,,2013-01-14 03:01:00,
2013-01-13 22:33:00,30.0,26.0,-100.00,WNW,288,6.0,16.0,84,0.00,,,0.00,0.000000,,2013-01-14 03:33:00,
2013-01-13 22:43:00,30.0,26.0,-100.00,WNW,288,6.0,16.0,84,0.00,,,0.00,0.000000,,2013-01-14 03:43:00,
2013-01-13 22:53:00,30.0,26.0,-100.00,WNW,288,6.0,16.0,84,0.00,,,0.00,0.000000,,2013-01-14 03:53:00,
2013-01-13 23:01:00,27.0,23.0,-100.00,WNW,291,7.0,22.0,84,0.00,,,0.00,0.000000,,2013-01-14 04:01:00,
2013-01-13 23:32:00,27.0,23.0,-100.00,WNW,291,7.0,22.0,84,0.00,,,0.00,0.000000,,2013-01-14 04:32:00,
2013-01-13 23:42:00,27.0,23.0,-100.00,WNW,291,7.0,22.0,84,0.00,,,0.00,0.000000,,2013-01-14 04:42:00,
2013-01-13 23:53:00,27.0,23.0,-100.00,WNW,291,7.0,22.0,84,0.00,,,0.00,0.000000,,2013-01-14 04:53:00,